Time;durP1;ratioP1;P1;durP2;ratioP2;P2;SDS_P1;SDS_P2;PMS_P1;PMS_P2;Temp;Humidity;BMP_temperature;BMP_pressure;BME280_temperature;BME280_humidity;BME280_pressure;Samples;Min_cycle;Max_cycle;Signal;HPM_P1;HPM_P2
2022/08/31 00:05:01;;;;;;;3.38;0.60;;;;;;;14.08;100.00;101779.91;5038778;28;20148;-49
2022/08/31 00:07:26;;;;;;;3.75;0.57;;;;;;;14.05;100.00;101774.09;5034784;28;20040;-51
2022/08/31 00:09:53;;;;;;;1.88;0.50;;;;;;;14.00;100.00;101777.31;5026129;28;20455;-53
2022/08/31 00:12:19;;;;;;;3.22;0.20;;;;;;;13.95;100.00;101780.53;5036292;28;20049;-50
2022/08/31 00:14:44;;;;;;;2.05;0.30;;;;;;;13.91;100.00;101778.38;5038287;28;20032;-50
2022/08/31 00:17:10;;;;;;;2.50;0.32;;;;;;;13.89;100.00;101791.91;5027296;28;20041;-51
2022/08/31 00:19:35;;;;;;;7.13;0.47;;;;;;;13.90;100.00;101790.91;5038562;28;20025;-52
2022/08/31 00:22:01;;;;;;;1.75;0.57;;;;;;;13.87;100.00;101788.59;5030514;28;20028;-49
2022/08/31 00:24:27;;;;;;;1.42;0.80;;;;;;;13.80;100.00;101785.00;5033387;28;20037;-49
2022/08/31 00:26:52;;;;;;;2.72;0.50;;;;;;;13.72;100.00;101790.41;5038810;28;20048;-50
2022/08/31 00:29:17;;;;;;;2.20;0.50;;;;;;;13.64;100.00;101793.97;5034435;28;20037;-53
2022/08/31 00:31:43;;;;;;;1.02;0.10;;;;;;;13.64;100.00;101793.13;5033369;28;20025;-54
2022/08/31 00:34:08;;;;;;;0.98;0.55;;;;;;;13.62;100.00;101792.47;5033537;28;20507;-50
2022/08/31 00:36:34;;;;;;;1.73;0.57;;;;;;;13.62;100.00;101785.31;5031905;28;20037;-54
2022/08/31 00:38:59;;;;;;;5.07;0.20;;;;;;;13.56;100.00;101786.03;5034808;28;20098;-50
2022/08/31 00:41:27;;;;;;;0.95;0.32;;;;;;;13.53;100.00;101789.06;5041150;28;20064;-54
2022/08/31 00:43:55;;;;;;;1.55;0.30;;;;;;;13.45;100.00;101787.28;5047603;28;20035;-53
2022/08/31 00:46:32;;;;;;;0.77;0.10;;;;;;;13.40;100.00;101781.66;5035619;28;20130;-52
2022/08/31 00:49:14;;;;;;;2.30;0.45;;;;;;;13.41;100.00;101785.16;5032868;28;20033;-53
2022/08/31 00:51:45;;;;;;;1.98;0.40;;;;;;;13.42;100.00;101787.63;5037789;28;20063;-50
2022/08/31 00:54:13;;;;;;;0.88;0.40;;;;;;;13.41;100.00;101779.81;5035763;28;20034;-51
2022/08/31 00:56:40;;;;;;;1.52;0.13;;;;;;;13.35;100.00;101776.03;5032077;28;20068;-52
2022/08/31 00:59:06;;;;;;;3.05;0.10;;;;;;;13.35;100.00;101780.56;5033288;28;20036;-50
2022/08/31 01:01:31;;;;;;;1.83;0.30;;;;;;;13.28;100.00;101775.09;5035331;28;20369;-51
2022/08/31 01:03:57;;;;;;;0.52;0.25;;;;;;;13.21;100.00;101779.44;5037147;28;20098;-48
2022/08/31 01:06:23;;;;;;;3.88;0.25;;;;;;;13.18;100.00;101783.28;5036683;28;20029;-53
2022/08/31 01:08:50;;;;;;;6.53;0.55;;;;;;;13.15;100.00;101780.97;5039424;28;20060;-50
2022/08/31 01:11:18;;;;;;;2.33;0.95;;;;;;;13.13;100.00;101782.97;5035665;28;20037;-51
2022/08/31 01:13:45;;;;;;;3.40;0.50;;;;;;;13.08;100.00;101782.66;5044722;28;20190;-54
2022/08/31 01:16:18;;;;;;;3.25;0.30;;;;;;;13.02;100.00;101783.38;5040568;28;20037;-49
2022/08/31 01:18:45;;;;;;;0.80;0.25;;;;;;;12.99;100.00;101784.56;5040604;28;20056;-53
2022/08/31 01:21:37;;;;;;;1.85;0.30;;;;;;;13.03;100.00;101790.34;5029051;28;20405;-52
2022/08/31 01:24:03;;;;;;;1.45;0.40;;;;;;;12.96;100.00;101784.91;5045584;28;20032;-52
2022/08/31 01:26:31;;;;;;;0.88;0.45;;;;;;;12.86;100.00;101787.78;5032432;28;20033;-50
2022/08/31 01:29:01;;;;;;;3.55;0.15;;;;;;;12.85;100.00;101790.63;5031693;28;20025;-52
2022/08/31 01:31:32;;;;;;;1.85;0.60;;;;;;;12.83;100.00;101789.94;5040102;28;20024;-54
2022/08/31 01:33:57;;;;;;;5.85;1.45;;;;;;;12.77;100.00;101788.00;5035205;28;20029;-55
2022/08/31 01:36:24;;;;;;;7.55;0.70;;;;;;;12.73;100.00;101784.88;5040569;28;20573;-54
2022/08/31 01:38:50;;;;;;;3.67;0.40;;;;;;;12.74;100.00;101786.50;5031786;28;20068;-51
2022/08/31 01:41:15;;;;;;;0.50;0.10;;;;;;;12.69;100.00;101799.50;5035423;28;20692;-49
2022/08/31 01:43:41;;;;;;;7.15;0.52;;;;;;;12.67;100.00;101798.84;5040387;28;20488;-48
2022/08/31 01:46:11;;;;;;;1.55;0.75;;;;;;;12.65;100.00;101803.53;5035563;28;20437;-50
2022/08/31 01:48:38;;;;;;;3.40;0.20;;;;;;;12.58;100.00;101794.56;5033323;28;20033;-49
2022/08/31 01:51:04;;;;;;;3.03;0.85;;;;;;;12.51;100.00;101797.06;5034085;28;20525;-51
2022/08/31 01:53:30;;;;;;;2.33;0.28;;;;;;;12.44;100.00;101790.78;5032735;28;20033;-49
2022/08/31 01:55:56;;;;;;;1.00;0.65;;;;;;;12.41;100.00;101799.09;5043777;28;20029;-50
2022/08/31 01:58:21;;;;;;;1.85;0.35;;;;;;;12.39;100.00;101796.63;5031996;28;20021;-52
2022/08/31 02:00:47;;;;;;;1.40;0.40;;;;;;;12.27;100.00;101789.19;5032039;28;20025;-51
2022/08/31 02:03:12;;;;;;;2.55;0.28;;;;;;;12.16;100.00;101798.34;5043266;28;20029;-52
2022/08/31 02:05:38;;;;;;;0.43;0.43;;;;;;;12.14;100.00;101795.84;5035841;28;20548;-55
2022/08/31 02:08:06;;;;;;;1.95;0.43;;;;;;;12.11;100.00;101796.19;5039435;28;20033;-51
2022/08/31 02:10:31;;;;;;;3.15;0.17;;;;;;;12.04;100.00;101791.72;5037983;28;20485;-48
2022/08/31 02:12:57;;;;;;;2.17;1.08;;;;;;;11.96;100.00;101795.22;5042961;28;20048;-51
2022/08/31 02:15:22;;;;;;;4.20;0.10;;;;;;;11.86;100.00;101795.38;5042559;28;20033;-53
2022/08/31 02:17:48;;;;;;;5.82;0.55;;;;;;;11.77;100.00;101799.00;5014461;28;20398;-52
2022/08/31 02:20:14;;;;;;;0.47;0.15;;;;;;;11.69;100.00;101797.16;5034561;28;20110;-51
2022/08/31 02:22:40;;;;;;;6.45;1.08;;;;;;;11.65;100.00;101798.53;5047224;28;20136;-55
2022/08/31 02:25:07;;;;;;;3.20;0.52;;;;;;;11.57;100.00;101796.69;5037045;28;20021;-53
2022/08/31 02:27:33;;;;;;;3.10;0.63;;;;;;;11.51;100.00;101797.38;5036928;28;20083;-50
2022/08/31 02:29:58;;;;;;;1.08;0.20;;;;;;;11.44;100.00;101792.88;5036331;28;20709;-52
2022/08/31 02:32:23;;;;;;;1.70;0.25;;;;;;;11.37;100.00;101787.38;5032839;28;20303;-48
2022/08/31 02:34:49;;;;;;;2.20;0.30;;;;;;;11.31;100.00;101798.66;5044564;28;20037;-51
2022/08/31 02:37:16;;;;;;;2.05;0.30;;;;;;;11.25;100.00;101794.00;5050637;28;20028;-50
2022/08/31 02:39:41;;;;;;;3.85;0.70;;;;;;;11.16;100.00;101789.69;5039073;28;20194;-51
2022/08/31 02:42:07;;;;;;;1.95;0.75;;;;;;;11.13;100.00;101794.31;5038715;28;20512;-53
2022/08/31 02:44:32;;;;;;;1.13;0.22;;;;;;;11.08;100.00;101796.63;5038829;28;20118;-49
2022/08/31 02:46:57;;;;;;;0.40;0.30;;;;;;;11.17;100.00;101807.25;5040124;28;20025;-51
2022/08/31 02:49:23;;;;;;;2.00;0.15;;;;;;;11.16;100.00;101801.13;5036554;28;20617;-51
2022/08/31 02:51:48;;;;;;;0.43;0.28;;;;;;;11.07;100.00;101799.41;5041849;28;20021;-51
2022/08/31 02:54:14;;;;;;;1.48;0.20;;;;;;;10.99;100.00;101797.56;5049472;28;20486;-53
2022/08/31 02:56:39;;;;;;;0.65;0.20;;;;;;;10.93;100.00;101795.56;5039449;28;20032;-52
2022/08/31 02:59:05;;;;;;;2.33;0.20;;;;;;;10.88;100.00;101788.09;5038023;28;20083;-53
2022/08/31 03:01:30;;;;;;;10.20;1.17;;;;;;;10.87;100.00;101790.94;5048297;28;20557;-50
2022/08/31 03:03:56;;;;;;;0.43;0.08;;;;;;;10.79;100.00;101791.72;5046192;28;20123;-49
2022/08/31 03:06:22;;;;;;;0.98;0.30;;;;;;;10.73;100.00;101783.56;5037226;28;20074;-52
2022/08/31 03:08:48;;;;;;;1.70;0.82;;;;;;;10.65;100.00;101790.50;5030622;28;20463;-52
2022/08/31 03:11:15;;;;;;;5.78;0.38;;;;;;;10.65;100.00;101784.38;5038960;28;20021;-53
2022/08/31 03:13:41;;;;;;;1.27;0.10;;;;;;;10.66;100.00;101788.66;5041774;28;20025;-53
2022/08/31 03:16:07;;;;;;;0.52;0.25;;;;;;;10.58;100.00;101792.13;5033441;28;20040;-50
2022/08/31 03:18:33;;;;;;;2.65;0.17;;;;;;;10.53;100.00;101790.94;5041413;28;20028;-52
2022/08/31 03:20:58;;;;;;;4.07;0.30;;;;;;;10.48;100.00;101792.25;5040455;28;20386;-53
2022/08/31 03:23:24;;;;;;;3.90;0.73;;;;;;;10.43;100.00;101797.19;5042172;28;20056;-51
2022/08/31 03:25:49;;;;;;;0.40;0.38;;;;;;;10.44;100.00;101800.69;5043238;28;20029;-50
2022/08/31 03:28:15;;;;;;;0.45;0.10;;;;;;;10.37;100.00;101804.94;5041306;28;20106;-51
2022/08/31 03:30:41;;;;;;;1.95;0.03;;;;;;;10.33;100.00;101801.78;5042141;28;20033;-53
2022/08/31 03:33:07;;;;;;;3.60;0.85;;;;;;;10.26;100.00;101793.59;5041838;28;20393;-50
2022/08/31 03:35:32;;;;;;;0.45;0.10;;;;;;;10.21;100.00;101803.81;5040025;28;20029;-52
2022/08/31 03:37:58;;;;;;;0.10;0.00;;;;;;;10.16;100.00;101795.50;5041567;28;20021;-51
2022/08/31 03:40:24;;;;;;;0.30;0.00;;;;;;;10.10;100.00;101806.75;5037360;28;20470;-50
2022/08/31 03:42:49;;;;;;;0.82;0.10;;;;;;;10.03;100.00;101798.56;5035438;28;20079;-52
2022/08/31 03:45:15;;;;;;;0.45;0.20;;;;;;;9.96;100.00;101797.53;5037342;28;20020;-54
2022/08/31 03:47:40;;;;;;;2.15;0.20;;;;;;;9.94;100.00;101811.91;5040869;28;20493;-53
2022/08/31 03:50:09;;;;;;;0.32;0.10;;;;;;;9.91;100.00;101809.56;5034920;28;20067;-52
2022/08/31 03:52:34;;;;;;;0.52;0.22;;;;;;;9.85;100.00;101804.91;5045127;28;20160;-50
2022/08/31 03:55:00;;;;;;;0.95;0.68;;;;;;;9.80;100.00;101803.53;5041480;28;20120;-55
2022/08/31 03:57:26;;;;;;;0.45;0.32;;;;;;;9.75;100.00;101805.81;5046163;28;20060;-51
2022/08/31 03:59:53;;;;;;;0.55;0.10;;;;;;;9.70;100.00;101794.84;5044550;28;20040;-49
2022/08/31 04:02:19;;;;;;;3.33;0.20;;;;;;;9.69;100.00;101801.13;5037965;28;20544;-53
2022/08/31 04:04:49;;;;;;;2.40;0.30;;;;;;;9.65;100.00;101797.13;5037593;28;20051;-51
2022/08/31 04:07:15;;;;;;;7.63;0.17;;;;;;;9.59;100.00;101800.38;5040547;28;20116;-51
2022/08/31 04:09:40;;;;;;;0.17;0.10;;;;;;;9.53;100.00;101801.84;5042032;28;20109;-54
2022/08/31 04:12:05;;;;;;;2.53;0.40;;;;;;;9.50;100.00;101803.94;5046196;28;20056;-52
2022/08/31 04:14:31;;;;;;;0.45;0.20;;;;;;;9.46;100.00;101805.22;5042264;28;20127;-52
2022/08/31 04:16:56;;;;;;;0.85;0.08;;;;;;;9.44;100.00;101807.19;5046231;28;20095;-51
2022/08/31 04:19:23;;;;;;;1.13;0.22;;;;;;;9.38;100.00;101809.47;5031628;28;20024;-50
2022/08/31 04:21:49;;;;;;;1.95;0.20;;;;;;;9.35;100.00;101807.13;5043862;28;20096;-52
2022/08/31 04:24:14;;;;;;;2.08;0.17;;;;;;;9.33;100.00;101809.09;5037226;28;20318;-51
2022/08/31 04:26:40;;;;;;;1.10;0.38;;;;;;;9.29;100.00;101815.69;5039429;28;20040;-49
2022/08/31 04:29:06;;;;;;;2.00;0.30;;;;;;;9.23;100.00;101810.13;5033688;28;20032;-52
2022/08/31 04:31:35;;;;;;;0.30;0.10;;;;;;;9.15;100.00;101809.06;5039260;28;20029;-54
2022/08/31 04:34:00;;;;;;;2.55;0.30;;;;;;;9.09;100.00;101814.13;5038840;28;20036;-49
2022/08/31 04:36:26;;;;;;;2.38;0.10;;;;;;;9.00;100.00;101810.53;5032923;28;20347;-52
2022/08/31 04:38:54;;;;;;;0.38;0.20;;;;;;;8.98;100.00;101809.03;5038563;28;20025;-53
2022/08/31 04:41:22;;;;;;;0.85;0.10;;;;;;;8.93;100.00;101812.09;5036075;28;20018;-50
2022/08/31 04:43:49;;;;;;;4.07;0.47;;;;;;;8.89;100.00;101806.28;5038297;28;20024;-54
2022/08/31 04:46:16;;;;;;;2.83;0.30;;;;;;;8.85;100.00;101810.19;5039008;28;20029;-52
2022/08/31 04:48:42;;;;;;;3.70;0.20;;;;;;;8.83;100.00;101804.25;5035376;28;20052;-53
2022/08/31 04:51:12;;;;;;;0.45;0.10;;;;;;;8.79;100.00;101813.44;5038415;28;20022;-51
2022/08/31 04:53:38;;;;;;;0.80;0.10;;;;;;;8.77;100.00;101809.28;5037545;28;20381;-50
2022/08/31 04:56:13;;;;;;;0.80;0.57;;;;;;;8.76;100.00;101807.63;5043076;28;20020;-49
2022/08/31 04:59:00;;;;;;;1.60;0.10;;;;;;;8.77;100.00;101807.47;5032573;28;20447;-50
2022/08/31 05:01:34;;;;;;;2.83;0.00;;;;;;;8.77;100.00;101811.94;5034844;28;20021;-48
2022/08/31 05:04:00;;;;;;;0.38;0.20;;;;;;;8.75;100.00;101804.13;5041159;28;20424;-50
2022/08/31 05:06:29;;;;;;;1.02;0.52;;;;;;;8.72;100.00;101804.44;5038163;28;20086;-51
2022/08/31 05:08:58;;;;;;;0.77;0.20;;;;;;;8.76;100.00;101808.47;5035918;28;20120;-54
2022/08/31 05:11:25;;;;;;;0.70;0.57;;;;;;;8.84;100.00;101813.00;5045402;28;20056;-49
2022/08/31 05:13:55;;;;;;;3.50;0.20;;;;;;;8.83;100.00;101809.53;5042037;28;20028;-53
2022/08/31 05:16:20;;;;;;;2.45;0.30;;;;;;;8.82;100.00;101820.25;5034852;28;20031;-49
2022/08/31 05:18:47;;;;;;;3.60;0.50;;;;;;;8.79;100.00;101813.44;5035465;28;20029;-52
2022/08/31 05:21:24;;;;;;;3.20;0.65;;;;;;;8.78;100.00;101811.78;5033081;28;20026;-48
2022/08/31 05:23:50;;;;;;;0.90;0.50;;;;;;;8.83;100.00;101809.53;5040548;28;20033;-55
2022/08/31 05:26:21;;;;;;;2.35;0.40;;;;;;;8.89;100.00;101808.94;5034963;28;20058;-49
2022/08/31 05:28:47;;;;;;;1.02;0.20;;;;;;;8.92;100.00;101806.00;5029394;28;20025;-50
2022/08/31 05:31:13;;;;;;;4.85;1.60;;;;;;;9.00;100.00;101815.00;5033270;28;20029;-54
2022/08/31 05:33:39;;;;;;;2.15;0.50;;;;;;;9.04;100.00;101811.09;5041229;28;20083;-48
2022/08/31 05:36:05;;;;;;;0.45;0.15;;;;;;;9.10;100.00;101815.78;5037833;28;20200;-52
2022/08/31 05:38:30;;;;;;;1.80;0.40;;;;;;;9.14;100.00;101812.69;5024690;28;20034;-49
2022/08/31 05:40:57;;;;;;;4.38;1.00;;;;;;;9.24;100.00;101815.28;5041600;28;20510;-50
2022/08/31 05:43:23;;;;;;;0.32;0.17;;;;;;;9.34;100.00;101817.84;5030642;28;20086;-51
2022/08/31 05:45:48;;;;;;;4.07;0.70;;;;;;;9.38;100.00;101812.09;5030886;28;20379;-52
2022/08/31 05:48:14;;;;;;;12.38;1.30;;;;;;;9.47;100.00;101817.47;5032577;28;20120;-50
2022/08/31 05:50:40;;;;;;;4.70;0.30;;;;;;;9.47;100.00;101810.38;5032298;28;20040;-51
2022/08/31 05:53:06;;;;;;;5.70;1.42;;;;;;;9.59;100.00;101813.63;5038717;28;20025;-50
2022/08/31 05:55:32;;;;;;;2.50;0.45;;;;;;;9.66;100.00;101816.50;5043832;28;20036;-52
2022/08/31 05:57:57;;;;;;;5.53;0.55;;;;;;;9.73;100.00;101813.09;5031034;28;20109;-50
2022/08/31 06:00:24;;;;;;;1.77;0.40;;;;;;;9.83;100.00;101813.00;5028236;28;20242;-52
2022/08/31 06:02:50;;;;;;;3.63;1.73;;;;;;;9.86;100.00;101818.00;5035205;28;20112;-53
2022/08/31 06:05:15;;;;;;;1.52;0.50;;;;;;;9.94;100.00;101814.56;5036979;28;20132;-48
2022/08/31 06:07:41;;;;;;;1.88;0.25;;;;;;;10.00;100.00;101816.63;5038650;28;20051;-51
2022/08/31 06:10:08;;;;;;;0.52;0.40;;;;;;;10.07;100.00;101816.81;5033811;28;20037;-49
2022/08/31 06:12:34;;;;;;;1.00;0.45;;;;;;;10.15;100.00;101817.72;5039689;28;20421;-52
2022/08/31 06:15:04;;;;;;;2.83;0.50;;;;;;;10.33;100.00;101820.34;5045839;28;20037;-50
2022/08/31 06:17:31;;;;;;;2.40;0.20;;;;;;;10.41;100.00;101822.22;5033867;28;20036;-51
2022/08/31 06:19:57;;;;;;;11.93;1.27;;;;;;;10.51;100.00;101817.63;5049098;28;20025;-55
2022/08/31 06:22:23;;;;;;;3.40;1.20;;;;;;;10.57;100.00;101819.63;5044303;28;20041;-49
2022/08/31 06:24:48;;;;;;;3.92;0.75;;;;;;;10.69;100.00;101821.03;5037521;28;20076;-49
2022/08/31 06:27:14;;;;;;;2.28;0.68;;;;;;;10.77;100.00;101822.88;5044484;28;20029;-53
2022/08/31 06:29:40;;;;;;;5.15;1.58;;;;;;;10.87;100.00;101818.28;5031273;28;20028;-53
2022/08/31 06:32:06;;;;;;;4.32;1.05;;;;;;;11.06;100.00;101825.13;5040782;28;20029;-51
2022/08/31 06:34:33;;;;;;;2.00;0.38;;;;;;;11.27;100.00;101822.03;5038739;28;20033;-52
2022/08/31 06:36:59;;;;;;;0.90;0.52;;;;;;;11.33;100.00;101818.75;5048145;28;20029;-52
2022/08/31 06:39:24;;;;;;;2.45;0.63;;;;;;;11.38;100.00;101820.06;5038596;28;20122;-52
2022/08/31 06:41:54;;;;;;;5.82;0.88;;;;;;;11.42;100.00;101816.09;5034073;28;20030;-50
2022/08/31 06:44:22;;;;;;;0.75;0.30;;;;;;;11.53;100.00;101821.91;5039582;28;20053;-48
2022/08/31 06:46:49;;;;;;;11.30;0.85;;;;;;;11.68;100.00;101829.25;5038958;28;20021;-52
2022/08/31 06:49:15;;;;;;;1.35;0.52;;;;;;;11.76;100.00;101823.91;5035034;28;20044;-50
2022/08/31 06:51:40;;;;;;;4.57;1.30;;;;;;;11.98;100.00;101827.78;5034920;28;20029;-52
2022/08/31 06:54:08;;;;;;;2.00;1.17;;;;;;;12.19;100.00;101824.59;5042130;28;20068;-51
2022/08/31 06:56:34;;;;;;;1.58;1.17;;;;;;;12.24;100.00;101816.94;5033778;28;21723;-52
2022/08/31 06:59:00;;;;;;;1.88;0.40;;;;;;;12.25;100.00;101818.59;5038661;28;20040;-49
2022/08/31 07:01:29;;;;;;;1.75;0.20;;;;;;;12.36;100.00;101814.75;5036023;28;20056;-50
2022/08/31 07:03:56;;;;;;;2.45;0.55;;;;;;;12.61;100.00;101824.31;5036670;28;20025;-49
2022/08/31 07:06:28;;;;;;;5.85;0.32;;;;;;;12.86;100.00;101827.72;5049357;28;20513;-54
2022/08/31 07:08:55;;;;;;;;;;;;;;;13.06;100.00;101816.63;5038807;28;20105;-50
2022/08/31 07:11:24;;;;;;;2.78;0.60;;;;;;;13.16;100.00;101809.25;5035170;28;19927;-51
2022/08/31 07:13:52;;;;;;;2.00;0.20;;;;;;;13.18;100.00;101809.91;5029606;28;20530;-51
2022/08/31 07:16:20;;;;;;;8.35;0.82;;;;;;;13.24;100.00;101803.91;5041166;28;20029;-51
2022/08/31 07:18:48;;;;;;;1.67;0.43;;;;;;;13.20;100.00;101801.75;5035234;28;20029;-50
2022/08/31 07:21:19;;;;;;;3.00;0.35;;;;;;;13.24;100.00;101798.56;5044708;28;20017;-50
2022/08/31 07:23:45;;;;;;;;;;;;;;;13.29;100.00;101801.56;5036157;28;20037;-51
2022/08/31 07:26:22;;;;;;;2.72;0.38;;;;;;;13.40;100.00;101802.97;5038112;28;20001;-52
2022/08/31 07:28:51;;;;;;;4.15;1.00;;;;;;;13.66;100.00;101799.94;5027299;28;20025;-49
2022/08/31 07:31:18;;;;;;;1.65;0.45;;;;;;;13.96;100.00;101803.53;5031139;28;20123;-53
2022/08/31 07:33:44;;;;;;;4.32;0.52;;;;;;;14.15;100.00;101794.16;5039310;28;20123;-52
2022/08/31 07:36:12;;;;;;;2.75;1.02;;;;;;;14.35;100.00;101785.59;5031513;28;20164;-52
2022/08/31 07:44:22;;;;;;;5.28;0.75;;;;;;;14.81;100.00;101766.72;5024845;28;20068;-55
2022/08/31 07:46:49;;;;;;;4.75;0.63;;;;;;;14.86;100.00;101766.16;5034112;28;20195;-51
2022/08/31 07:49:15;;;;;;;2.53;0.60;;;;;;;14.87;100.00;101763.31;5027170;28;20094;-52
2022/08/31 07:51:49;;;;;;;1.70;0.88;;;;;;;14.87;100.00;101768.66;5041217;28;20079;-48
2022/08/31 07:54:26;;;;;;;10.57;1.55;;;;;;;14.91;100.00;101758.41;5040023;28;20832;-47
2022/08/31 07:56:56;;;;;;;5.07;0.70;;;;;;;15.01;100.00;101765.09;5044543;28;20041;-51
2022/08/31 07:59:22;;;;;;;2.25;0.70;;;;;;;15.23;100.00;101762.44;5034654;28;20428;-50
2022/08/31 08:01:48;;;;;;;0.85;0.10;;;;;;;15.41;100.00;101756.66;5044064;28;20048;-50
2022/08/31 08:04:24;;;;;;;0.40;0.20;;;;;;;15.51;100.00;101767.84;5038563;28;20131;-50
2022/08/31 08:06:54;;;;;;;7.07;1.38;;;;;;;15.61;100.00;101760.31;5048240;28;20179;-52
2022/08/31 08:09:27;;;;;;;0.68;0.17;;;;;;;15.83;100.00;101763.84;5033299;28;20489;-51
2022/08/31 08:11:56;;;;;;;3.03;0.85;;;;;;;16.25;100.00;101756.69;5033657;28;20061;-51
2022/08/31 08:14:22;;;;;;;1.17;0.47;;;;;;;16.71;100.00;101737.31;5043039;28;20037;-53
2022/08/31 08:16:48;;;;;;;1.67;0.82;;;;;;;17.03;100.00;101734.97;5040538;28;20446;-51
2022/08/31 08:19:14;;;;;;;4.63;0.88;;;;;;;17.10;100.00;101726.94;5042800;28;20102;-52
2022/08/31 08:21:40;;;;;;;2.72;0.55;;;;;;;16.99;100.00;101733.72;5041631;28;20047;-50
2022/08/31 08:24:05;;;;;;;4.30;0.35;;;;;;;17.02;100.00;101736.00;5042217;28;20025;-53
2022/08/31 08:26:31;;;;;;;1.73;0.25;;;;;;;16.85;100.00;101740.06;5043109;28;20032;-51
2022/08/31 08:28:56;;;;;;;2.50;0.35;;;;;;;16.78;100.00;101734.72;5032728;28;20033;-48
2022/08/31 08:31:22;;;;;;;2.90;0.77;;;;;;;16.71;100.00;101736.50;5046820;28;20025;-47
2022/08/31 08:33:49;;;;;;;1.75;0.32;;;;;;;16.79;100.00;101744.38;5041261;28;20386;-50
2022/08/31 08:36:17;;;;;;;1.38;0.13;;;;;;;16.82;100.00;101752.00;5040770;28;20191;-52
2022/08/31 08:38:46;;;;;;;1.50;0.17;;;;;;;16.85;100.00;101746.25;5041985;28;20031;-56
2022/08/31 08:41:18;;;;;;;5.88;1.23;;;;;;;17.04;100.00;101743.81;5033299;28;20037;-50
2022/08/31 08:43:49;;;;;;;12.95;0.90;;;;;;;17.14;100.00;101747.78;5040860;28;20195;-56
2022/08/31 08:46:18;;;;;;;3.20;0.77;;;;;;;17.09;100.00;101742.22;5028229;28;20036;-52
2022/08/31 08:48:46;;;;;;;5.07;0.55;;;;;;;17.11;100.00;101748.16;5019650;28;20030;-51
2022/08/31 08:51:17;;;;;;;3.00;0.85;;;;;;;17.08;100.00;101745.06;5040429;28;20056;-54
2022/08/31 08:53:45;;;;;;;4.47;0.60;;;;;;;17.17;100.00;101751.91;5038484;28;20021;-52
2022/08/31 08:56:12;;;;;;;5.10;0.35;;;;;;;17.43;100.00;101743.06;5028696;28;20293;-53
2022/08/31 08:58:44;;;;;;;2.63;0.30;;;;;;;17.65;100.00;101738.31;5028929;28;20035;-56
2022/08/31 09:01:18;;;;;;;1.48;0.52;;;;;;;17.77;100.00;101736.66;5038290;28;20032;-49
2022/08/31 09:03:49;;;;;;;5.40;0.25;;;;;;;17.97;100.00;101744.72;5031991;28;20120;-55
2022/08/31 09:06:27;;;;;;;5.03;0.38;;;;;;;17.92;100.00;101728.41;5039964;28;20079;-54
2022/08/31 09:09:24;;;;;;;3.15;0.60;;;;;;;17.91;100.00;101729.44;5038452;28;20407;-53
2022/08/31 09:12:05;;;;;;;2.28;1.05;;;;;;;18.25;100.00;101725.66;5039999;28;20064;-52
2022/08/31 09:14:35;;;;;;;7.18;0.50;;;;;;;18.51;100.00;101715.84;5040424;28;20040;-47
2022/08/31 09:17:16;;;;;;;3.97;0.13;;;;;;;18.71;100.00;101713.03;5034296;28;20040;-56
2022/08/31 09:20:03;;;;;;;2.38;0.65;;;;;;;18.94;100.00;101718.72;5015089;28;20021;-56
2022/08/31 09:22:32;;;;;;;5.40;1.63;;;;;;;18.99;100.00;101714.56;5025340;28;20037;-54
2022/08/31 09:24:58;;;;;;;4.85;0.30;;;;;;;18.83;100.00;101715.91;5032895;28;20689;-54
2022/08/31 09:27:56;;;;;;;3.60;0.43;;;;;;;18.78;100.00;101713.03;5040285;28;20036;-51
2022/08/31 09:30:36;;;;;;;2.72;0.35;;;;;;;18.82;100.00;101715.09;5046475;28;20044;-52
2022/08/31 09:33:02;;;;;;;2.15;0.90;;;;;;;19.10;100.00;101727.28;5034410;28;20072;-50
2022/08/31 09:35:40;;;;;;;1.70;0.20;;;;;;;19.38;100.00;101713.44;5047552;28;20059;-52
2022/08/31 09:38:27;;;;;;;1.00;0.38;;;;;;;19.53;100.00;101713.94;5047636;28;20290;-51
2022/08/31 09:40:53;;;;;;;1.67;0.20;;;;;;;19.81;100.00;101707.28;5042256;28;20041;-50
2022/08/31 09:43:22;;;;;;;0.88;0.00;;;;;;;20.09;100.00;101708.66;5040080;28;20036;-50
2022/08/31 09:45:56;;;;;;;1.10;0.20;;;;;;;19.91;100.00;101704.91;5042357;28;20557;-52
2022/08/31 09:48:42;;;;;;;2.47;0.95;;;;;;;19.82;100.00;101708.91;5032258;28;20397;-52
2022/08/31 09:51:07;;;;;;;0.75;0.30;;;;;;;19.66;100.00;101712.97;5028261;28;20037;-50
2022/08/31 09:56:26;;;;;;;1.58;0.38;;;;;;;19.44;100.00;101701.81;5038805;28;20048;-53
2022/08/31 09:59:01;;;;;;;1.70;0.30;;;;;;;19.42;100.00;101709.28;5037520;28;20070;-51
2022/08/31 10:01:41;;;;;;;2.53;0.32;;;;;;;19.47;100.00;101706.75;5030374;28;20330;-52
2022/08/31 10:04:18;;;;;;;1.90;0.20;;;;;;;19.66;100.00;101699.53;5042701;28;20519;-50
2022/08/31 10:07:31;;;;;;;4.30;0.43;;;;;;;19.80;100.00;101698.41;5051692;28;20044;-49
2022/08/31 10:10:21;;;;;;;3.67;0.15;;;;;;;20.07;100.00;101697.28;4990996;28;20073;-55
2022/08/31 10:12:59;;;;;;;0.75;0.25;;;;;;;19.95;100.00;101702.56;5036354;28;20052;-52
2022/08/31 10:15:58;;;;;;;1.90;0.77;;;;;;;19.96;100.00;101690.78;5035709;28;20089;-48
2022/08/31 10:18:33;;;;;;;7.60;1.17;;;;;;;20.06;100.00;101693.78;5033637;28;20036;-54
2022/08/31 10:21:09;;;;;;;1.63;0.20;;;;;;;20.13;100.00;101693.69;5037478;28;20025;-52
2022/08/31 10:23:53;;;;;;;0.90;0.15;;;;;;;20.51;100.00;101677.25;5036972;28;20051;-53
2022/08/31 10:26:35;;;;;;;1.30;0.22;;;;;;;20.54;100.00;101682.22;5029783;28;20101;-52
2022/08/31 10:29:12;;;;;;;1.67;0.45;;;;;;;20.55;100.00;101674.94;5040740;28;20768;-51
2022/08/31 10:31:45;;;;;;;0.82;0.10;;;;;;;20.98;100.00;101672.03;5036579;28;20075;-57
2022/08/31 10:37:17;;;;;;;2.38;0.10;;;;;;;20.76;100.00;101665.56;5047932;28;20072;-54
2022/08/31 10:39:47;;;;;;;1.02;0.20;;;;;;;20.57;100.00;101667.47;5039448;28;20037;-54
2022/08/31 10:42:25;;;;;;;6.50;0.40;;;;;;;20.53;100.00;101664.38;5038261;28;20303;-53
2022/08/31 10:45:12;;;;;;;1.30;0.77;;;;;;;20.64;100.00;101663.63;5046696;28;20051;-56
2022/08/31 10:47:45;;;;;;;2.03;0.30;;;;;;;20.89;100.00;101658.06;5035117;28;20463;-53
2022/08/31 10:50:15;;;;;;;0.73;0.40;;;;;;;21.42;100.00;101647.47;5038838;28;20044;-54
2022/08/31 10:52:47;;;;;;;1.60;0.30;;;;;;;21.25;100.00;101636.56;5038298;28;20071;-48
2022/08/31 10:55:27;;;;;;;3.97;0.25;;;;;;;21.44;100.00;101638.09;5044799;28;20025;-49
2022/08/31 10:58:31;;;;;;;1.13;0.28;;;;;;;21.59;100.00;101639.50;5037764;28;20100;-53
2022/08/31 11:01:11;;;;;;;3.70;0.20;;;;;;;21.78;100.00;101636.41;5039832;28;20041;-49
2022/08/31 11:03:37;;;;;;;5.07;0.35;;;;;;;21.85;100.00;101625.50;5044204;28;20091;-52
2022/08/31 11:06:22;;;;;;;0.95;0.20;;;;;;;22.06;100.00;101624.00;5033200;28;20025;-51
2022/08/31 11:09:53;;;;;;;4.13;0.30;;;;;;;21.50;100.00;101631.78;5036961;28;20486;-53
2022/08/31 11:12:24;;;;;;;0.80;0.15;;;;;;;20.90;100.00;101616.56;5010831;28;20060;-51
2022/08/31 11:15:24;;;;;;;5.57;0.32;;;;;;;21.05;100.00;101610.75;5009836;28;20131;-51
2022/08/31 11:18:11;;;;;;;0.90;0.20;;;;;;;20.92;100.00;101617.16;5037244;28;20105;-55
2022/08/31 11:21:16;;;;;;;1.05;0.20;;;;;;;20.94;100.00;101614.25;5033835;28;20033;-56
2022/08/31 11:23:44;;;;;;;1.15;0.68;;;;;;;21.42;100.00;101618.63;5035287;28;20646;-54
2022/08/31 11:26:37;;;;;;;2.42;0.20;;;;;;;21.80;100.00;101602.97;5018073;28;20175;-57
2022/08/31 11:29:40;;;;;;;0.20;0.20;;;;;;;21.80;100.00;101606.50;5043383;28;20037;-52
2022/08/31 11:32:23;;;;;;;1.88;0.10;;;;;;;21.33;100.00;101598.44;5026380;28;20071;-51
2022/08/31 11:34:53;;;;;;;0.45;0.13;;;;;;;21.41;100.00;101598.09;5050490;28;20091;-51
2022/08/31 11:37:45;;;;;;;3.95;0.10;;;;;;;21.53;100.00;101593.53;5048305;28;20021;-52
2022/08/31 11:40:11;;;;;;;1.27;0.80;;;;;;;21.90;100.00;101589.69;5035886;28;20061;-55
2022/08/31 11:42:37;;;;;;;0.95;0.10;;;;;;;22.04;100.00;101590.22;5031686;28;20021;-50
2022/08/31 11:45:31;;;;;;;4.20;0.10;;;;;;;21.88;100.00;101595.31;5046395;28;20443;-52
2022/08/31 11:47:58;;;;;;;1.45;0.32;;;;;;;21.58;100.00;101600.06;5035531;28;20783;-50